sensor_id;sensor_type;location;lat;lon;timestamp;pressure;altitude;pressure_sealevel;temperature;humidity
29825;BME280;16713;52.916;12.834;2023-02-08T00:01:45;103633.19;;;-3.10;65.54
29825;BME280;16713;52.916;12.834;2023-02-08T00:04:11;103640.78;;;-3.13;65.08
29825;BME280;16713;52.916;12.834;2023-02-08T00:06:37;103637.53;;;-3.09;65.29
29825;BME280;16713;52.916;12.834;2023-02-08T00:09:04;103635.63;;;-3.15;64.91
29825;BME280;16713;52.916;12.834;2023-02-08T00:11:30;103636.47;;;-3.14;65.08
29825;BME280;16713;52.916;12.834;2023-02-08T00:13:56;103629.94;;;-3.05;64.84
29825;BME280;16713;52.916;12.834;2023-02-08T00:16:23;103629.41;;;-3.15;65.14
29825;BME280;16713;52.916;12.834;2023-02-08T00:18:49;103631.19;;;-3.01;65.11
29825;BME280;16713;52.916;12.834;2023-02-08T00:21:16;103629.09;;;-3.06;64.87
29825;BME280;16713;52.916;12.834;2023-02-08T00:23:43;103622.06;;;-3.07;64.91
29825;BME280;16713;52.916;12.834;2023-02-08T00:26:09;103629.22;;;-3.14;64.27
29825;BME280;16713;52.916;12.834;2023-02-08T00:28:36;103629.81;;;-3.18;63.64
29825;BME280;16713;52.916;12.834;2023-02-08T00:31:02;103626.84;;;-3.23;64.07
29825;BME280;16713;52.916;12.834;2023-02-08T00:33:29;103628.34;;;-3.21;64.45
29825;BME280;16713;52.916;12.834;2023-02-08T00:35:59;103629.53;;;-3.23;64.17
29825;BME280;16713;52.916;12.834;2023-02-08T00:38:26;103629.94;;;-3.26;63.85
29825;BME280;16713;52.916;12.834;2023-02-08T00:40:52;103633.19;;;-3.31;64.23
29825;BME280;16713;52.916;12.834;2023-02-08T00:43:19;103635.22;;;-3.33;63.77
29825;BME280;16713;52.916;12.834;2023-02-08T00:45:45;103626.72;;;-3.36;63.76
29825;BME280;16713;52.916;12.834;2023-02-08T00:48:11;103623.63;;;-3.40;63.57
29825;BME280;16713;52.916;12.834;2023-02-08T00:50:37;103618.78;;;-3.44;64.14
29825;BME280;16713;52.916;12.834;2023-02-08T00:53:04;103621.28;;;-3.43;64.35
29825;BME280;16713;52.916;12.834;2023-02-08T00:55:30;103620.66;;;-3.45;63.39
29825;BME280;16713;52.916;12.834;2023-02-08T00:57:57;103625.56;;;-3.48;63.78
29825;BME280;16713;52.916;12.834;2023-02-08T01:00:23;103622.63;;;-3.53;63.40
29825;BME280;16713;52.916;12.834;2023-02-08T01:02:50;103619.94;;;-3.53;63.91
29825;BME280;16713;52.916;12.834;2023-02-08T01:05:16;103614.31;;;-3.58;64.01
29825;BME280;16713;52.916;12.834;2023-02-08T01:07:42;103615.59;;;-3.54;64.05
29825;BME280;16713;52.916;12.834;2023-02-08T01:10:09;103612.28;;;-3.56;63.61
29825;BME280;16713;52.916;12.834;2023-02-08T01:12:37;103607.28;;;-3.59;63.59
29825;BME280;16713;52.916;12.834;2023-02-08T01:15:04;103607.28;;;-3.59;63.75
29825;BME280;16713;52.916;12.834;2023-02-08T01:17:31;103604.50;;;-3.51;64.08
29825;BME280;16713;52.916;12.834;2023-02-08T01:19:57;103601.94;;;-3.59;63.96
29825;BME280;16713;52.916;12.834;2023-02-08T01:22:23;103597.72;;;-3.47;64.17
29825;BME280;16713;52.916;12.834;2023-02-08T01:24:50;103599.75;;;-3.49;64.04
29825;BME280;16713;52.916;12.834;2023-02-08T01:27:16;103607.00;;;-3.50;64.28
29825;BME280;16713;52.916;12.834;2023-02-08T01:29:42;103601.44;;;-3.48;64.21
29825;BME280;16713;52.916;12.834;2023-02-08T01:32:09;103604.31;;;-3.50;64.35
29825;BME280;16713;52.916;12.834;2023-02-08T01:34:35;103606.25;;;-3.58;64.17
29825;BME280;16713;52.916;12.834;2023-02-08T01:37:01;103607.63;;;-3.48;65.25
29825;BME280;16713;52.916;12.834;2023-02-08T01:39:28;103612.50;;;-3.37;65.95
29825;BME280;16713;52.916;12.834;2023-02-08T01:41:54;103609.03;;;-3.31;66.49
29825;BME280;16713;52.916;12.834;2023-02-08T01:47:05;103611.78;;;-3.24;64.98
29825;BME280;16713;52.916;12.834;2023-02-08T01:49:33;103609.94;;;-3.24;63.99
29825;BME280;16713;52.916;12.834;2023-02-08T01:52:09;103605.78;;;-3.26;64.28
29825;BME280;16713;52.916;12.834;2023-02-08T01:54:48;103602.38;;;-3.35;63.72
29825;BME280;16713;52.916;12.834;2023-02-08T01:57:16;103591.84;;;-3.36;63.19
29825;BME280;16713;52.916;12.834;2023-02-08T02:02:13;103592.03;;;-3.38;64.29
29825;BME280;16713;52.916;12.834;2023-02-08T02:04:40;103583.06;;;-3.30;64.63
29825;BME280;16713;52.916;12.834;2023-02-08T02:07:07;103575.34;;;-3.33;64.31
29825;BME280;16713;52.916;12.834;2023-02-08T02:09:39;103575.13;;;-3.38;63.60
29825;BME280;16713;52.916;12.834;2023-02-08T02:12:08;103580.69;;;-3.40;63.79
29825;BME280;16713;52.916;12.834;2023-02-08T02:14:36;103584.13;;;-3.46;63.74
29825;BME280;16713;52.916;12.834;2023-02-08T02:17:03;103573.56;;;-3.47;63.38
29825;BME280;16713;52.916;12.834;2023-02-08T02:22:13;103589.84;;;-3.49;63.39
29825;BME280;16713;52.916;12.834;2023-02-08T02:40:14;103603.69;;;-3.66;63.48
29825;BME280;16713;52.916;12.834;2023-02-08T02:43:20;103605.31;;;-3.72;63.20
29825;BME280;16713;52.916;12.834;2023-02-08T02:56:35;103610.66;;;-3.72;64.91
29825;BME280;16713;52.916;12.834;2023-02-08T02:59:04;103616.66;;;-3.70;65.17
29825;BME280;16713;52.916;12.834;2023-02-08T03:01:31;103609.44;;;-3.69;64.26
29825;BME280;16713;52.916;12.834;2023-02-08T03:03:58;103613.16;;;-3.70;64.45
29825;BME280;16713;52.916;12.834;2023-02-08T03:11:38;103611.00;;;-3.75;64.27
29825;BME280;16713;52.916;12.834;2023-02-08T03:19:26;103624.19;;;-3.80;63.92
29825;BME280;16713;52.916;12.834;2023-02-08T03:21:54;103625.28;;;-3.89;63.69
29825;BME280;16713;52.916;12.834;2023-02-08T03:29:30;103632.84;;;-3.93;63.96
29825;BME280;16713;52.916;12.834;2023-02-08T03:32:12;103629.66;;;-3.88;65.03
29825;BME280;16713;52.916;12.834;2023-02-08T03:34:44;103624.44;;;-3.90;65.01
29825;BME280;16713;52.916;12.834;2023-02-08T03:38:00;103622.72;;;-4.12;66.28
29825;BME280;16713;52.916;12.834;2023-02-08T03:40:06;103620.03;;;-4.12;67.05
29825;BME280;16713;52.916;12.834;2023-02-08T03:42:35;103621.13;;;-3.77;66.90
29825;BME280;16713;52.916;12.834;2023-02-08T03:45:07;103627.53;;;-3.57;66.05
29825;BME280;16713;52.916;12.834;2023-02-08T03:47:38;103622.75;;;-3.61;66.80
29825;BME280;16713;52.916;12.834;2023-02-08T03:50:07;103632.00;;;-3.43;66.59
29825;BME280;16713;52.916;12.834;2023-02-08T03:52:34;103637.19;;;-3.41;65.52
29825;BME280;16713;52.916;12.834;2023-02-08T03:55:05;103629.97;;;-3.41;66.07
29825;BME280;16713;52.916;12.834;2023-02-08T03:57:34;103631.09;;;-3.35;65.78
29825;BME280;16713;52.916;12.834;2023-02-08T04:00:06;103631.53;;;-3.32;65.56
29825;BME280;16713;52.916;12.834;2023-02-08T04:02:33;103624.41;;;-3.39;64.70
29825;BME280;16713;52.916;12.834;2023-02-08T04:05:02;103625.19;;;-3.45;63.72
29825;BME280;16713;52.916;12.834;2023-02-08T04:07:29;103627.72;;;-3.58;63.57
29825;BME280;16713;52.916;12.834;2023-02-08T04:09:56;103625.72;;;-3.71;63.30
29825;BME280;16713;52.916;12.834;2023-02-08T04:12:22;103629.66;;;-3.67;63.12
29825;BME280;16713;52.916;12.834;2023-02-08T04:14:49;103625.25;;;-3.74;63.07
29825;BME280;16713;52.916;12.834;2023-02-08T04:17:15;103638.59;;;-3.81;63.25
29825;BME280;16713;52.916;12.834;2023-02-08T04:19:41;103628.69;;;-3.81;63.38
29825;BME280;16713;52.916;12.834;2023-02-08T04:22:08;103630.44;;;-3.88;63.09
29825;BME280;16713;52.916;12.834;2023-02-08T04:24:34;103626.13;;;-3.89;62.99
29825;BME280;16713;52.916;12.834;2023-02-08T04:27:00;103626.97;;;-3.88;62.55
29825;BME280;16713;52.916;12.834;2023-02-08T04:29:28;103622.06;;;-3.99;62.58
29825;BME280;16713;52.916;12.834;2023-02-08T04:31:54;103620.59;;;-4.02;63.12
29825;BME280;16713;52.916;12.834;2023-02-08T04:34:20;103621.88;;;-3.98;62.96
29825;BME280;16713;52.916;12.834;2023-02-08T04:36:47;103624.53;;;-3.98;63.03
29825;BME280;16713;52.916;12.834;2023-02-08T04:39:13;103629.75;;;-3.96;63.15
29825;BME280;16713;52.916;12.834;2023-02-08T04:41:39;103627.41;;;-3.99;63.07
29825;BME280;16713;52.916;12.834;2023-02-08T04:44:06;103630.19;;;-4.07;63.23
29825;BME280;16713;52.916;12.834;2023-02-08T04:46:32;103621.81;;;-4.04;62.71
29825;BME280;16713;52.916;12.834;2023-02-08T04:48:58;103619.75;;;-4.02;63.22
29825;BME280;16713;52.916;12.834;2023-02-08T04:51:25;103613.19;;;-4.00;63.43
29825;BME280;16713;52.916;12.834;2023-02-08T04:53:51;103610.91;;;-4.03;63.52
29825;BME280;16713;52.916;12.834;2023-02-08T04:56:17;103610.06;;;-4.03;63.33
29825;BME280;16713;52.916;12.834;2023-02-08T04:58:44;103605.06;;;-4.06;63.55
29825;BME280;16713;52.916;12.834;2023-02-08T05:01:10;103604.88;;;-4.05;63.78
29825;BME280;16713;52.916;12.834;2023-02-08T05:03:37;103589.81;;;-4.06;62.83
29825;BME280;16713;52.916;12.834;2023-02-08T05:06:03;103597.84;;;-4.06;63.14
29825;BME280;16713;52.916;12.834;2023-02-08T05:08:30;103587.41;;;-4.01;63.09
29825;BME280;16713;52.916;12.834;2023-02-08T05:10:56;103581.78;;;-4.06;63.59
29825;BME280;16713;52.916;12.834;2023-02-08T05:13:22;103592.94;;;-4.02;63.58
29825;BME280;16713;52.916;12.834;2023-02-08T05:15:49;103591.22;;;-4.10;62.97
29825;BME280;16713;52.916;12.834;2023-02-08T05:18:15;103594.25;;;-3.98;63.40
29825;BME280;16713;52.916;12.834;2023-02-08T05:20:41;103588.81;;;-4.05;62.27
29825;BME280;16713;52.916;12.834;2023-02-08T05:23:08;103597.41;;;-4.09;63.00
29825;BME280;16713;52.916;12.834;2023-02-08T05:25:34;103605.25;;;-4.08;62.88
29825;BME280;16713;52.916;12.834;2023-02-08T05:28:02;103612.47;;;-4.08;62.50
29825;BME280;16713;52.916;12.834;2023-02-08T05:30:28;103620.31;;;-4.07;63.39
29825;BME280;16713;52.916;12.834;2023-02-08T05:32:55;103616.78;;;-4.07;63.75
29825;BME280;16713;52.916;12.834;2023-02-08T05:35:21;103624.28;;;-4.03;64.24
29825;BME280;16713;52.916;12.834;2023-02-08T05:37:47;103628.44;;;-4.00;62.98
29825;BME280;16713;52.916;12.834;2023-02-08T05:40:14;103630.66;;;-4.04;63.43
29825;BME280;16713;52.916;12.834;2023-02-08T05:42:40;103634.38;;;-4.05;62.80
29825;BME280;16713;52.916;12.834;2023-02-08T05:45:07;103634.56;;;-4.06;63.00
29825;BME280;16713;52.916;12.834;2023-02-08T05:47:34;103639.25;;;-4.08;63.16
29825;BME280;16713;52.916;12.834;2023-02-08T05:50:01;103647.75;;;-4.05;63.68
29825;BME280;16713;52.916;12.834;2023-02-08T05:52:27;103647.38;;;-4.02;63.55
29825;BME280;16713;52.916;12.834;2023-02-08T05:54:53;103647.38;;;-4.02;63.36
29825;BME280;16713;52.916;12.834;2023-02-08T05:57:20;103650.06;;;-4.02;64.10
29825;BME280;16713;52.916;12.834;2023-02-08T05:59:46;103647.00;;;-3.99;64.41
29825;BME280;16713;52.916;12.834;2023-02-08T06:02:12;103650.06;;;-4.02;63.92
29825;BME280;16713;52.916;12.834;2023-02-08T06:04:39;103652.19;;;-3.97;65.09
29825;BME280;16713;52.916;12.834;2023-02-08T06:07:05;103655.78;;;-3.90;64.88
29825;BME280;16713;52.916;12.834;2023-02-08T06:09:32;103653.38;;;-3.85;64.71
29825;BME280;16713;52.916;12.834;2023-02-08T06:11:58;103654.00;;;-3.83;65.15
29825;BME280;16713;52.916;12.834;2023-02-08T06:14:24;103653.19;;;-3.84;65.35
29825;BME280;16713;52.916;12.834;2023-02-08T06:16:51;103649.50;;;-3.83;64.90
29825;BME280;16713;52.916;12.834;2023-02-08T06:19:17;103643.56;;;-3.78;64.66
29825;BME280;16713;52.916;12.834;2023-02-08T06:21:43;103647.66;;;-3.82;64.97
29825;BME280;16713;52.916;12.834;2023-02-08T06:24:10;103646.44;;;-3.80;64.98
29825;BME280;16713;52.916;12.834;2023-02-08T06:26:37;103650.59;;;-3.77;64.46
29825;BME280;16713;52.916;12.834;2023-02-08T06:29:03;103655.97;;;-3.77;64.25
29825;BME280;16713;52.916;12.834;2023-02-08T06:31:29;103643.28;;;-3.83;64.19
29825;BME280;16713;52.916;12.834;2023-02-08T06:33:56;103641.44;;;-3.83;64.14
29825;BME280;16713;52.916;12.834;2023-02-08T06:36:22;103632.38;;;-3.82;63.54
29825;BME280;16713;52.916;12.834;2023-02-08T06:38:48;103645.53;;;-3.87;63.37
29825;BME280;16713;52.916;12.834;2023-02-08T06:41:16;103644.59;;;-3.79;63.59
29825;BME280;16713;52.916;12.834;2023-02-08T06:43:42;103644.13;;;-3.83;63.26
29825;BME280;16713;52.916;12.834;2023-02-08T06:46:09;103647.19;;;-3.86;63.34
29825;BME280;16713;52.916;12.834;2023-02-08T06:48:35;103643.47;;;-3.85;63.55
29825;BME280;16713;52.916;12.834;2023-02-08T06:51:02;103646.81;;;-3.83;62.82
29825;BME280;16713;52.916;12.834;2023-02-08T06:53:28;103656.69;;;-3.83;63.22
29825;BME280;16713;52.916;12.834;2023-02-08T06:55:55;103652.56;;;-3.86;63.78
29825;BME280;16713;52.916;12.834;2023-02-08T06:58:21;103654.19;;;-3.85;63.97
29825;BME280;16713;52.916;12.834;2023-02-08T07:00:48;103657.16;;;-3.80;64.07
29825;BME280;16713;52.916;12.834;2023-02-08T07:03:14;103659.84;;;-3.80;63.87
29825;BME280;16713;52.916;12.834;2023-02-08T07:05:42;103654.84;;;-3.83;63.77
29825;BME280;16713;52.916;12.834;2023-02-08T07:08:28;103666.78;;;-3.85;64.14
29825;BME280;16713;52.916;12.834;2023-02-08T07:10:55;103662.72;;;-3.81;64.14
29825;BME280;16713;52.916;12.834;2023-02-08T07:13:21;103667.88;;;-3.80;63.92
29825;BME280;16713;52.916;12.834;2023-02-08T07:15:47;103668.25;;;-3.83;64.37
29825;BME280;16713;52.916;12.834;2023-02-08T07:18:14;103670.66;;;-3.73;64.30
29825;BME280;16713;52.916;12.834;2023-02-08T07:20:40;103676.47;;;-3.69;64.77
29825;BME280;16713;52.916;12.834;2023-02-08T07:23:06;103680.81;;;-3.68;65.31
29825;BME280;16713;52.916;12.834;2023-02-08T07:25:33;103689.59;;;-3.60;64.93
29825;BME280;16713;52.916;12.834;2023-02-08T07:27:59;103684.69;;;-3.56;65.74
29825;BME280;16713;52.916;12.834;2023-02-08T07:30:26;103680.41;;;-3.51;65.60
29825;BME280;16713;52.916;12.834;2023-02-08T07:32:52;103672.91;;;-3.41;66.15
29825;BME280;16713;52.916;12.834;2023-02-08T07:35:19;103679.56;;;-3.37;66.79
29825;BME280;16713;52.916;12.834;2023-02-08T07:37:45;103679.00;;;-3.32;66.80
29825;BME280;16713;52.916;12.834;2023-02-08T07:40:11;103686.81;;;-3.16;66.90
29825;BME280;16713;52.916;12.834;2023-02-08T07:42:38;103679.09;;;-3.05;67.12
29825;BME280;16713;52.916;12.834;2023-02-08T07:45:04;103675.06;;;-2.94;68.19
29825;BME280;16713;52.916;12.834;2023-02-08T07:47:31;103685.47;;;-2.85;68.20
29825;BME280;16713;52.916;12.834;2023-02-08T07:49:57;103676.44;;;-2.77;68.44
29825;BME280;16713;52.916;12.834;2023-02-08T07:52:23;103677.34;;;-2.70;68.57
29825;BME280;16713;52.916;12.834;2023-02-08T07:54:50;103667.94;;;-2.60;68.68
29825;BME280;16713;52.916;12.834;2023-02-08T07:57:16;103670.91;;;-2.48;68.80
29825;BME280;16713;52.916;12.834;2023-02-08T07:59:46;103668.72;;;-2.38;68.66
29825;BME280;16713;52.916;12.834;2023-02-08T08:02:13;103666.47;;;-2.35;68.62
29825;BME280;16713;52.916;12.834;2023-02-08T08:04:40;103665.63;;;-2.35;69.24
29825;BME280;16713;52.916;12.834;2023-02-08T08:07:06;103663.44;;;-2.25;69.51
29825;BME280;16713;52.916;12.834;2023-02-08T08:09:33;103662.22;;;-2.16;69.13
29825;BME280;16713;52.916;12.834;2023-02-08T08:11:59;103664.81;;;-2.01;69.88
29825;BME280;16713;52.916;12.834;2023-02-08T08:14:25;103660.06;;;-1.99;69.86
29825;BME280;16713;52.916;12.834;2023-02-08T08:16:52;103659.94;;;-1.85;69.16
29825;BME280;16713;52.916;12.834;2023-02-08T08:19:18;103652.69;;;-1.91;69.43
29825;BME280;16713;52.916;12.834;2023-02-08T08:21:44;103661.81;;;-1.79;69.82
29825;BME280;16713;52.916;12.834;2023-02-08T08:24:10;103659.38;;;-1.74;70.20
29825;BME280;16713;52.916;12.834;2023-02-08T08:26:37;103658.56;;;-1.68;70.65
29825;BME280;16713;52.916;12.834;2023-02-08T08:29:03;103662.13;;;-1.61;70.94
29825;BME280;16713;52.916;12.834;2023-02-08T08:31:30;103655.75;;;-1.47;69.56
29825;BME280;16713;52.916;12.834;2023-02-08T08:33:56;103658.47;;;-1.40;70.51
29825;BME280;16713;52.916;12.834;2023-02-08T08:36:23;103663.84;;;-1.34;69.85
29825;BME280;16713;52.916;12.834;2023-02-08T08:38:49;103659.94;;;-1.25;70.04
29825;BME280;16713;52.916;12.834;2023-02-08T08:41:16;103664.31;;;-1.24;69.30
29825;BME280;16713;52.916;12.834;2023-02-08T08:43:43;103666.97;;;-1.30;70.17
29825;BME280;16713;52.916;12.834;2023-02-08T08:46:10;103679.44;;;-1.10;69.32
29825;BME280;16713;52.916;12.834;2023-02-08T08:48:36;103665.97;;;-1.16;69.75
29825;BME280;16713;52.916;12.834;2023-02-08T08:51:06;103666.22;;;-0.98;69.71
29825;BME280;16713;52.916;12.834;2023-02-08T08:53:33;103665.59;;;-0.87;70.12
29825;BME280;16713;52.916;12.834;2023-02-08T08:55:59;103665.19;;;-0.84;69.04
29825;BME280;16713;52.916;12.834;2023-02-08T08:58:26;103659.78;;;-0.91;70.27
29825;BME280;16713;52.916;12.834;2023-02-08T09:00:52;103668.09;;;-0.72;69.84
29825;BME280;16713;52.916;12.834;2023-02-08T09:03:20;103663.53;;;-0.85;68.88
29825;BME280;16713;52.916;12.834;2023-02-08T09:05:46;103666.03;;;-0.70;69.39
29825;BME280;16713;52.916;12.834;2023-02-08T09:08:13;103672.44;;;-0.71;69.75
29825;BME280;16713;52.916;12.834;2023-02-08T09:10:39;103680.75;;;-0.53;69.46
29825;BME280;16713;52.916;12.834;2023-02-08T09:13:06;103671.63;;;-0.46;68.77
29825;BME280;16713;52.916;12.834;2023-02-08T09:15:32;103680.97;;;-0.35;68.31
29825;BME280;16713;52.916;12.834;2023-02-08T09:17:59;103674.09;;;-0.31;68.83
29825;BME280;16713;52.916;12.834;2023-02-08T09:20:25;103676.41;;;-0.35;68.81
29825;BME280;16713;52.916;12.834;2023-02-08T09:22:51;103670.38;;;-0.24;68.15
29825;BME280;16713;52.916;12.834;2023-02-08T09:25:18;103673.44;;;-0.20;67.45
29825;BME280;16713;52.916;12.834;2023-02-08T09:27:45;103673.66;;;-0.22;68.20
29825;BME280;16713;52.916;12.834;2023-02-08T09:30:11;103669.31;;;-0.16;67.37
29825;BME280;16713;52.916;12.834;2023-02-08T09:32:37;103675.09;;;0.00;68.10
29825;BME280;16713;52.916;12.834;2023-02-08T09:35:05;103665.31;;;-0.01;68.11
29825;BME280;16713;52.916;12.834;2023-02-08T09:37:32;103667.78;;;0.07;66.88
29825;BME280;16713;52.916;12.834;2023-02-08T09:39:58;103664.31;;;0.00;67.77
29825;BME280;16713;52.916;12.834;2023-02-08T09:52:15;103657.59;;;0.22;66.97
29825;BME280;16713;52.916;12.834;2023-02-08T09:54:53;103659.44;;;0.22;65.58
29825;BME280;16713;52.916;12.834;2023-02-08T09:57:23;103661.94;;;0.23;66.01
29825;BME280;16713;52.916;12.834;2023-02-08T09:59:57;103660.06;;;0.24;65.38
29825;BME280;16713;52.916;12.834;2023-02-08T10:02:26;103659.84;;;0.32;65.62
29825;BME280;16713;52.916;12.834;2023-02-08T10:07:25;103661.22;;;0.41;65.10
29825;BME280;16713;52.916;12.834;2023-02-08T10:09:55;103667.69;;;0.40;65.78
29825;BME280;16713;52.916;12.834;2023-02-08T10:19:55;103645.78;;;0.61;64.06
29825;BME280;16713;52.916;12.834;2023-02-08T10:25:26;103647.44;;;0.62;65.04
29825;BME280;16713;52.916;12.834;2023-02-08T10:30:38;103632.25;;;0.68;65.02
29825;BME280;16713;52.916;12.834;2023-02-08T10:35:54;103626.19;;;0.72;63.70
29825;BME280;16713;52.916;12.834;2023-02-08T10:38:28;103627.81;;;0.73;64.19
29825;BME280;16713;52.916;12.834;2023-02-08T10:41:15;103630.09;;;0.76;64.69
29825;BME280;16713;52.916;12.834;2023-02-08T10:43:45;103632.75;;;0.83;64.43
29825;BME280;16713;52.916;12.834;2023-02-08T10:48:52;103631.50;;;0.85;63.93
29825;BME280;16713;52.916;12.834;2023-02-08T10:51:24;103629.66;;;0.86;63.76
29825;BME280;16713;52.916;12.834;2023-02-08T10:53:51;103619.59;;;0.93;62.53
29825;BME280;16713;52.916;12.834;2023-02-08T10:56:36;103617.66;;;0.75;64.23
29825;BME280;16713;52.916;12.834;2023-02-08T10:59:06;103611.84;;;0.72;63.89
29825;BME280;16713;52.916;12.834;2023-02-08T11:01:37;103598.06;;;0.80;63.73
29825;BME280;16713;52.916;12.834;2023-02-08T11:04:07;103604.38;;;0.74;62.86
29825;BME280;16713;52.916;12.834;2023-02-08T11:06:37;103599.34;;;0.77;64.08
29825;BME280;16713;52.916;12.834;2023-02-08T11:09:04;103602.47;;;0.81;63.57
29825;BME280;16713;52.916;12.834;2023-02-08T11:11:35;103597.94;;;0.99;63.76
29825;BME280;16713;52.916;12.834;2023-02-08T11:14:07;103591.91;;;0.97;62.76
29825;BME280;16713;52.916;12.834;2023-02-08T11:16:34;103591.59;;;0.87;63.43
29825;BME280;16713;52.916;12.834;2023-02-08T11:19:01;103598.00;;;0.93;63.19
29825;BME280;16713;52.916;12.834;2023-02-08T11:21:36;103592.59;;;0.93;64.13
29825;BME280;16713;52.916;12.834;2023-02-08T11:24:20;103593.31;;;1.06;63.99
29825;BME280;16713;52.916;12.834;2023-02-08T11:26:48;103595.63;;;1.03;62.61
29825;BME280;16713;52.916;12.834;2023-02-08T11:29:16;103597.63;;;1.14;61.80
29825;BME280;16713;52.916;12.834;2023-02-08T11:32:13;103594.97;;;1.07;63.73
29825;BME280;16713;52.916;12.834;2023-02-08T11:34:41;103600.94;;;1.16;61.95
29825;BME280;16713;52.916;12.834;2023-02-08T11:37:20;103614.28;;;1.11;61.99
29825;BME280;16713;52.916;12.834;2023-02-08T11:39:52;103615.63;;;1.20;62.50
29825;BME280;16713;52.916;12.834;2023-02-08T11:44:50;103620.38;;;1.24;62.88
29825;BME280;16713;52.916;12.834;2023-02-08T11:47:24;103611.41;;;1.30;61.89
29825;BME280;16713;52.916;12.834;2023-02-08T11:49:52;103613.94;;;1.25;61.53
29825;BME280;16713;52.916;12.834;2023-02-08T11:52:22;103611.81;;;1.34;62.05
29825;BME280;16713;52.916;12.834;2023-02-08T11:54:53;103617.84;;;1.29;62.19
29825;BME280;16713;52.916;12.834;2023-02-08T11:57:23;103611.34;;;1.37;61.24
29825;BME280;16713;52.916;12.834;2023-02-08T11:59:51;103606.88;;;1.24;60.96
29825;BME280;16713;52.916;12.834;2023-02-08T12:02:38;103616.31;;;1.40;62.14
29825;BME280;16713;52.916;12.834;2023-02-08T12:05:12;103611.13;;;1.38;61.36
29825;BME280;16713;52.916;12.834;2023-02-08T12:15:23;103611.66;;;1.47;61.38
29825;BME280;16713;52.916;12.834;2023-02-08T12:28:14;103599.41;;;1.44;61.68
29825;BME280;16713;52.916;12.834;2023-02-08T12:30:52;103598.28;;;1.52;60.48
29825;BME280;16713;52.916;12.834;2023-02-08T12:44:23;103578.09;;;1.54;60.87
29825;BME280;16713;52.916;12.834;2023-02-08T12:54:41;103577.50;;;1.52;61.06
29825;BME280;16713;52.916;12.834;2023-02-08T12:57:11;103566.16;;;1.62;60.29
29825;BME280;16713;52.916;12.834;2023-02-08T12:59:41;103564.00;;;1.70;60.60
29825;BME280;16713;52.916;12.834;2023-02-08T13:02:25;103560.44;;;1.70;60.89
29825;BME280;16713;52.916;12.834;2023-02-08T13:04:54;103554.06;;;1.64;59.70
29825;BME280;16713;52.916;12.834;2023-02-08T13:07:29;103560.28;;;1.65;60.13
29825;BME280;16713;52.916;12.834;2023-02-08T13:10:07;103559.16;;;1.72;59.29
29825;BME280;16713;52.916;12.834;2023-02-08T13:12:39;103553.63;;;1.67;60.55
29825;BME280;16713;52.916;12.834;2023-02-08T13:18:01;103554.97;;;1.76;60.20
29825;BME280;16713;52.916;12.834;2023-02-08T13:23:02;103547.91;;;1.75;60.31
29825;BME280;16713;52.916;12.834;2023-02-08T13:25:32;103536.56;;;1.67;59.43
29825;BME280;16713;52.916;12.834;2023-02-08T13:28:03;103541.44;;;1.76;60.19
29825;BME280;16713;52.916;12.834;2023-02-08T13:30:30;103541.91;;;1.73;60.01
29825;BME280;16713;52.916;12.834;2023-02-08T13:32:57;103542.13;;;1.72;60.51
29825;BME280;16713;52.916;12.834;2023-02-08T13:35:27;103527.00;;;1.82;60.18
29825;BME280;16713;52.916;12.834;2023-02-08T13:37:57;103538.44;;;1.84;59.35
29825;BME280;16713;52.916;12.834;2023-02-08T13:40:27;103528.59;;;1.90;59.18
29825;BME280;16713;52.916;12.834;2023-02-08T13:43:23;103528.13;;;1.93;60.43
29825;BME280;16713;52.916;12.834;2023-02-08T13:46:00;103538.34;;;1.91;59.88
29825;BME280;16713;52.916;12.834;2023-02-08T13:48:27;103531.66;;;1.93;58.74
29825;BME280;16713;52.916;12.834;2023-02-08T13:51:05;103535.03;;;1.89;58.75
29825;BME280;16713;52.916;12.834;2023-02-08T14:04:33;103523.53;;;1.93;59.82
29825;BME280;16713;52.916;12.834;2023-02-08T14:09:38;103512.84;;;1.98;59.30
29825;BME280;16713;52.916;12.834;2023-02-08T14:17:46;103510.38;;;1.97;59.50
29825;BME280;16713;52.916;12.834;2023-02-08T14:22:48;103500.69;;;2.08;58.52
29825;BME280;16713;52.916;12.834;2023-02-08T14:25:22;103499.91;;;2.00;58.71
29825;BME280;16713;52.916;12.834;2023-02-08T14:30:24;103494.50;;;2.00;57.92
29825;BME280;16713;52.916;12.834;2023-02-08T14:32:53;103494.50;;;2.00;58.46
29825;BME280;16713;52.916;12.834;2023-02-08T14:35:34;103490.47;;;1.91;58.06
29825;BME280;16713;52.916;12.834;2023-02-08T14:45:47;103474.78;;;1.82;59.09
29825;BME280;16713;52.916;12.834;2023-02-08T14:53:42;103467.47;;;1.82;59.28
29825;BME280;16713;52.916;12.834;2023-02-08T14:56:14;103467.63;;;1.87;59.94
29825;BME280;16713;52.916;12.834;2023-02-08T14:58:44;103463.66;;;1.90;58.95
29825;BME280;16713;52.916;12.834;2023-02-08T15:01:12;103455.63;;;1.83;59.33
29825;BME280;16713;52.916;12.834;2023-02-08T15:03:39;103459.66;;;1.92;58.46
29825;BME280;16713;52.916;12.834;2023-02-08T15:08:33;103450.56;;;1.87;60.59
29825;BME280;16713;52.916;12.834;2023-02-08T15:11:00;103441.94;;;1.78;60.42
29825;BME280;16713;52.916;12.834;2023-02-08T15:13:26;103435.66;;;1.66;60.58
29825;BME280;16713;52.916;12.834;2023-02-08T15:15:53;103437.44;;;1.72;60.32
29825;BME280;16713;52.916;12.834;2023-02-08T15:18:24;103435.88;;;1.65;59.48
29825;BME280;16713;52.916;12.834;2023-02-08T15:21:01;103433.31;;;1.70;60.70
29825;BME280;16713;52.916;12.834;2023-02-08T15:23:27;103433.41;;;1.63;60.54
29825;BME280;16713;52.916;12.834;2023-02-08T15:25:56;103431.38;;;1.59;61.60
29825;BME280;16713;52.916;12.834;2023-02-08T15:28:24;103415.84;;;1.54;61.19
29825;BME280;16713;52.916;12.834;2023-02-08T15:30:55;103414.47;;;1.63;61.35
29825;BME280;16713;52.916;12.834;2023-02-08T15:33:21;103415.25;;;1.52;61.40
29825;BME280;16713;52.916;12.834;2023-02-08T15:36:01;103414.19;;;1.53;59.87